createdAt,value
2023-03-16T00:02:12.399Z,44.93
2023-03-16T00:04:39.165Z,48.60
2023-03-16T00:07:10.907Z,43.73
2023-03-16T00:09:40.305Z,44.27
2023-03-16T00:12:14.876Z,39.57
2023-03-16T00:14:46.936Z,40.30
2023-03-16T00:17:19.449Z,42.07
2023-03-16T00:19:54.165Z,31.60
2023-03-16T00:22:23.332Z,32.87
2023-03-16T00:24:49.486Z,23.00
2023-03-16T00:27:16.547Z,19.33
2023-03-16T00:29:47.685Z,17.13
2023-03-16T00:32:20.099Z,18.47
2023-03-16T00:34:47.779Z,15.67
2023-03-16T00:37:17.000Z,17.63
2023-03-16T00:39:45.487Z,20.03
2023-03-16T00:42:15.083Z,17.10
2023-03-16T00:44:41.314Z,17.03
2023-03-16T00:47:08.816Z,13.57
2023-03-16T00:49:35.556Z,17.10
2023-03-16T00:52:06.394Z,20.80
2023-03-16T00:54:33.961Z,18.60
2023-03-16T00:57:01.275Z,15.17
2023-03-16T00:59:29.702Z,13.20
2023-03-16T01:01:56.081Z,16.53
2023-03-16T01:04:22.360Z,15.67
2023-03-16T01:06:49.200Z,15.50
2023-03-16T01:09:15.415Z,15.23
2023-03-16T01:11:42.401Z,14.70
2023-03-16T01:14:10.132Z,15.87
2023-03-16T01:16:36.911Z,13.23
2023-03-16T01:19:03.132Z,12.43
2023-03-16T01:21:31.737Z,14.83
2023-03-16T01:23:57.851Z,14.63
2023-03-16T01:26:24.563Z,13.30
2023-03-16T01:28:50.971Z,13.37
2023-03-16T01:31:17.538Z,15.10
2023-03-16T01:33:44.115Z,14.87
2023-03-16T01:36:16.901Z,11.37
2023-03-16T01:38:53.474Z,13.23
2023-03-16T01:41:21.312Z,12.47
2023-03-16T01:43:47.484Z,13.20
2023-03-16T01:46:18.816Z,12.97
2023-03-16T01:49:12.508Z,11.60
2023-03-16T01:51:43.037Z,10.50
2023-03-16T01:54:19.375Z,11.73
2023-03-16T01:57:05.164Z,9.57
2023-03-16T01:59:37.809Z,13.37
2023-03-16T02:02:05.534Z,6.63
2023-03-16T02:04:55.121Z,6.97
2023-03-16T02:07:25.086Z,11.20
2023-03-16T02:09:56.835Z,12.33
2023-03-16T02:12:23.876Z,9.37
2023-03-16T02:14:53.349Z,5.53
2023-03-16T02:17:23.570Z,8.83
2023-03-16T02:20:13.280Z,10.20
2023-03-16T02:22:46.104Z,10.50
2023-03-16T02:25:14.687Z,13.70
2023-03-16T02:28:18.907Z,10.63
2023-03-16T02:30:47.157Z,10.00
2023-03-16T02:33:16.681Z,10.80
2023-03-16T02:35:43.988Z,9.40
2023-03-16T02:38:10.450Z,6.47
2023-03-16T02:40:45.136Z,8.10
2023-03-16T02:43:18.043Z,5.23
2023-03-16T02:45:56.040Z,6.43
2023-03-16T02:48:34.062Z,8.00
2023-03-16T02:51:00.243Z,9.67
2023-03-16T02:53:27.514Z,7.03
2023-03-16T02:55:56.011Z,9.13
2023-03-16T02:58:22.763Z,9.50
2023-03-16T03:00:49.392Z,6.83
2023-03-16T03:03:17.658Z,7.70
2023-03-16T03:05:43.803Z,9.07
2023-03-16T03:08:10.400Z,8.50
2023-03-16T03:10:37.212Z,6.00
2023-03-16T03:13:03.821Z,7.30
2023-03-16T03:15:30.007Z,8.23
2023-03-16T03:18:01.740Z,7.93
2023-03-16T03:20:30.398Z,6.97
2023-03-16T03:22:57.092Z,8.90
2023-03-16T03:25:23.544Z,12.97
2023-03-16T03:27:55.460Z,8.70
2023-03-16T03:30:24.910Z,9.57
2023-03-16T03:32:51.706Z,6.47
2023-03-16T03:35:20.664Z,7.67
2023-03-16T03:37:47.420Z,7.30
2023-03-16T03:40:16.389Z,8.20
2023-03-16T03:42:45.724Z,7.97
2023-03-16T03:45:13.588Z,9.20
2023-03-16T03:47:43.833Z,8.47
2023-03-16T03:50:14.747Z,5.40
2023-03-16T03:52:57.239Z,8.37
2023-03-16T03:55:23.723Z,6.73
2023-03-16T03:57:50.557Z,6.93
2023-03-16T04:00:20.155Z,7.30
2023-03-16T04:02:47.262Z,7.00
2023-03-16T04:05:25.269Z,5.77
2023-03-16T04:07:54.366Z,6.77
2023-03-16T04:10:21.125Z,6.00
2023-03-16T04:12:47.589Z,10.83
2023-03-16T04:15:14.212Z,6.87
2023-03-16T04:18:02.637Z,11.13
2023-03-16T04:20:29.650Z,8.40
2023-03-16T04:22:57.600Z,8.07
2023-03-16T04:25:29.892Z,7.07
2023-03-16T04:27:57.452Z,8.03
2023-03-16T04:30:28.223Z,10.83
2023-03-16T04:33:04.020Z,6.27
2023-03-16T04:35:31.227Z,8.90
2023-03-16T04:37:57.873Z,6.53
2023-03-16T04:40:32.065Z,7.20
2023-03-16T04:43:13.006Z,7.60
2023-03-16T04:45:40.405Z,9.80
2023-03-16T04:48:07.177Z,4.17
2023-03-16T04:50:33.391Z,7.37
2023-03-16T04:53:00.078Z,8.83
2023-03-16T04:55:27.604Z,8.27
2023-03-16T04:57:54.423Z,11.70
2023-03-16T05:00:22.995Z,9.67
2023-03-16T05:03:13.448Z,8.40
2023-03-16T05:05:41.804Z,8.43
2023-03-16T05:08:10.170Z,6.77
2023-03-16T05:10:39.165Z,7.90
2023-03-16T05:13:06.209Z,6.20
2023-03-16T05:15:32.903Z,7.80
2023-03-16T05:18:06.538Z,10.77
2023-03-16T05:20:32.734Z,10.27
2023-03-16T05:23:01.276Z,8.00
2023-03-16T05:25:34.803Z,9.03
2023-03-16T05:28:06.406Z,9.90
2023-03-16T05:30:44.522Z,8.27
2023-03-16T05:33:15.063Z,11.37
2023-03-16T05:35:42.435Z,10.27
2023-03-16T05:38:12.298Z,10.70
2023-03-16T05:40:41.599Z,8.57
2023-03-16T05:43:16.074Z,8.83
2023-03-16T05:45:48.053Z,7.87
2023-03-16T05:48:17.303Z,7.57
2023-03-16T05:50:49.772Z,6.20
2023-03-16T05:53:19.267Z,10.30
2023-03-16T05:55:51.867Z,9.13
2023-03-16T05:58:18.969Z,9.87
2023-03-16T06:00:45.676Z,8.27
2023-03-16T06:03:22.053Z,11.17
2023-03-16T06:05:48.966Z,6.93
2023-03-16T06:08:20.314Z,10.23
2023-03-16T06:10:50.725Z,8.70
2023-03-16T06:13:18.925Z,10.63
2023-03-16T06:15:45.330Z,6.77
2023-03-16T06:18:13.427Z,8.63
2023-03-16T06:20:39.621Z,7.30
2023-03-16T06:23:06.831Z,9.80
2023-03-16T06:25:33.477Z,8.17
2023-03-16T06:28:00.438Z,6.70
2023-03-16T06:30:27.368Z,8.43
2023-03-16T06:32:54.425Z,8.40
2023-03-16T06:35:20.927Z,5.07
2023-03-16T06:38:03.038Z,20.33
2023-03-16T06:40:41.584Z,8.33
2023-03-16T06:43:08.290Z,7.47
2023-03-16T06:45:35.000Z,6.63
2023-03-16T06:48:02.543Z,7.33
2023-03-16T06:50:29.045Z,7.50
2023-03-16T06:52:55.669Z,8.90
2023-03-16T06:55:21.708Z,7.43
2023-03-16T06:57:49.603Z,7.10
2023-03-16T07:00:18.506Z,5.67
2023-03-16T07:02:45.024Z,6.53
2023-03-16T07:05:28.093Z,9.23
2023-03-16T07:07:55.142Z,8.67
2023-03-16T07:10:24.638Z,6.87
2023-03-16T07:12:52.152Z,6.63
2023-03-16T07:15:18.997Z,7.97
2023-03-16T07:17:57.909Z,9.43
2023-03-16T07:20:26.383Z,9.57
2023-03-16T07:22:53.250Z,11.13
2023-03-16T07:25:21.330Z,7.90
2023-03-16T07:27:57.328Z,7.50
2023-03-16T07:30:29.340Z,7.57
2023-03-16T07:32:56.922Z,8.87
2023-03-16T07:35:25.873Z,6.73
2023-03-16T07:37:53.368Z,9.33
2023-03-16T07:40:20.476Z,7.33
2023-03-16T07:42:47.773Z,9.43
2023-03-16T07:45:20.860Z,7.23
2023-03-16T07:47:47.979Z,10.87
2023-03-16T07:50:50.913Z,9.27
2023-03-16T07:53:20.325Z,11.27
2023-03-16T07:55:51.590Z,10.13
2023-03-16T07:58:18.948Z,9.17
2023-03-16T08:00:47.741Z,7.67
2023-03-16T08:03:18.020Z,8.73
2023-03-16T08:05:45.871Z,13.23
2023-03-16T08:08:16.403Z,8.50
2023-03-16T08:10:43.464Z,8.80
2023-03-16T08:13:21.776Z,9.50
2023-03-16T08:15:57.720Z,13.23
2023-03-16T08:18:34.114Z,9.57
2023-03-16T08:21:01.287Z,11.03
2023-03-16T08:23:32.960Z,8.43
2023-03-16T08:26:00.737Z,11.13
2023-03-16T08:28:30.183Z,7.00
2023-03-16T08:30:58.724Z,9.87
2023-03-16T08:33:46.576Z,9.03
2023-03-16T08:36:16.512Z,7.27
2023-03-16T08:39:03.830Z,6.43
2023-03-16T08:41:35.074Z,9.60
2023-03-16T08:44:07.636Z,10.43
2023-03-16T08:46:35.236Z,6.77
2023-03-16T08:49:03.260Z,10.10
2023-03-16T08:51:31.828Z,9.30
2023-03-16T08:54:01.474Z,8.10
2023-03-16T08:56:29.830Z,7.27
2023-03-16T08:58:57.748Z,7.53
2023-03-16T09:01:24.969Z,5.63
2023-03-16T09:03:52.076Z,7.03
2023-03-16T09:06:21.152Z,10.07
2023-03-16T09:08:49.271Z,7.57
2023-03-16T09:11:18.071Z,7.90
2023-03-16T09:13:45.516Z,7.53
2023-03-16T09:16:15.034Z,8.10
2023-03-16T09:18:43.096Z,11.00
2023-03-16T09:21:12.431Z,7.17
2023-03-16T09:23:41.939Z,6.37
2023-03-16T09:26:11.971Z,7.93
2023-03-16T09:28:41.503Z,8.20
2023-03-16T09:31:14.507Z,7.33
2023-03-16T09:33:42.302Z,7.10
2023-03-16T09:36:10.732Z,7.27
2023-03-16T09:38:37.860Z,5.10
2023-03-16T09:41:15.717Z,5.30
2023-03-16T09:43:57.590Z,9.53
2023-03-16T09:46:27.147Z,7.10
2023-03-16T09:48:56.303Z,5.73
2023-03-16T09:51:30.367Z,7.53
2023-03-16T09:54:02.213Z,8.43
2023-03-16T09:56:41.362Z,7.10
2023-03-16T09:59:12.788Z,6.20
2023-03-16T10:02:16.809Z,8.53
2023-03-16T10:04:53.944Z,7.03
2023-03-16T10:07:58.779Z,8.57
2023-03-16T10:10:54.696Z,8.57
2023-03-16T10:13:45.988Z,5.10
2023-03-16T10:16:19.225Z,6.73
2023-03-16T10:18:48.889Z,5.20
2023-03-16T10:21:18.714Z,6.90
2023-03-16T10:23:47.994Z,5.10
2023-03-16T10:26:25.249Z,9.30
2023-03-16T10:28:54.234Z,5.37
2023-03-16T10:31:23.597Z,6.67
2023-03-16T10:33:57.731Z,7.33
2023-03-16T10:36:31.349Z,9.57
2023-03-16T10:39:01.261Z,6.50
2023-03-16T10:41:31.654Z,7.83
2023-03-16T10:44:09.390Z,6.37
2023-03-16T10:46:58.205Z,4.20
2023-03-16T10:49:35.520Z,4.60
2023-03-16T10:52:24.059Z,7.03
2023-03-16T10:54:59.457Z,4.63
2023-03-16T10:57:26.565Z,8.30
2023-03-16T10:59:56.894Z,5.77
2023-03-16T11:02:31.103Z,5.80
2023-03-16T11:04:57.797Z,6.10
2023-03-16T11:07:26.976Z,7.70
2023-03-16T11:09:57.905Z,8.33
2023-03-16T11:12:30.346Z,4.57
2023-03-16T11:15:23.593Z,4.53
2023-03-16T11:17:54.069Z,7.20
2023-03-16T11:20:25.704Z,6.40
2023-03-16T11:22:52.514Z,6.30
2023-03-16T11:25:28.156Z,5.20
2023-03-16T11:28:05.741Z,11.87
2023-03-16T11:30:49.765Z,6.47
2023-03-16T11:33:16.810Z,4.20
2023-03-16T11:35:58.741Z,6.60
2023-03-16T11:39:03.972Z,6.63
2023-03-16T11:41:39.943Z,7.07
2023-03-16T11:45:02.713Z,6.00
2023-03-16T11:47:35.311Z,6.23
2023-03-16T11:50:26.505Z,7.70
2023-03-16T11:53:13.162Z,6.83
2023-03-16T11:56:07.474Z,6.00
2023-03-16T11:58:43.049Z,5.43
2023-03-16T12:01:19.953Z,5.60
2023-03-16T12:04:17.663Z,4.90
2023-03-16T12:07:16.889Z,7.27
2023-03-16T12:10:01.642Z,5.30
2023-03-16T12:13:00.571Z,5.00
2023-03-16T12:15:51.471Z,4.67
2023-03-16T12:18:29.728Z,5.80
2023-03-16T12:21:04.850Z,5.43
2023-03-16T12:23:38.711Z,4.97
2023-03-16T12:26:05.411Z,4.57
2023-03-16T12:28:33.627Z,5.17
2023-03-16T12:31:17.224Z,8.90
2023-03-16T12:33:57.272Z,4.00
2023-03-16T12:36:41.678Z,4.97
2023-03-16T12:39:21.872Z,3.77
2023-03-16T12:42:06.503Z,7.10
2023-03-16T12:44:46.128Z,4.90
2023-03-16T12:47:23.742Z,7.03
2023-03-16T12:50:02.506Z,4.87
2023-03-16T12:52:43.191Z,6.20
2023-03-16T12:55:39.612Z,6.47
2023-03-16T12:58:08.631Z,5.60
2023-03-16T13:00:39.938Z,4.97
2023-03-16T13:03:16.435Z,4.67
2023-03-16T13:05:52.370Z,6.43
2023-03-16T13:08:20.696Z,5.40
2023-03-16T13:11:04.315Z,7.23
2023-03-16T13:13:32.182Z,5.57
2023-03-16T13:16:28.400Z,6.37
2023-03-16T13:18:57.052Z,3.53
2023-03-16T13:21:40.936Z,4.30
2023-03-16T13:24:26.248Z,5.43
2023-03-16T13:27:03.655Z,3.83
2023-03-16T13:29:32.342Z,5.13
2023-03-16T13:32:01.658Z,4.40
2023-03-16T13:34:32.105Z,5.33
2023-03-16T13:37:00.832Z,4.77
2023-03-16T13:39:31.594Z,3.80
2023-03-16T13:42:13.714Z,4.47
2023-03-16T13:44:42.207Z,6.27
2023-03-16T13:47:19.491Z,7.37
2023-03-16T13:49:50.171Z,3.77
2023-03-16T13:52:51.156Z,4.00
2023-03-16T13:55:23.066Z,6.00
2023-03-16T13:57:53.118Z,5.47
2023-03-16T14:00:41.084Z,4.37
2023-03-16T14:03:18.632Z,7.30
2023-03-16T14:05:45.123Z,10.27
2023-03-16T14:08:16.296Z,4.23
2023-03-16T14:10:44.403Z,4.00
2023-03-16T14:13:28.435Z,4.33
2023-03-16T14:15:57.664Z,3.80
2023-03-16T14:18:48.307Z,5.30
2023-03-16T14:21:22.597Z,4.07
2023-03-16T14:23:56.417Z,2.73
2023-03-16T14:26:23.028Z,6.70
2023-03-16T14:29:07.325Z,5.17
2023-03-16T14:31:39.020Z,5.80
2023-03-16T14:34:20.625Z,4.30
2023-03-16T14:36:47.426Z,5.43
2023-03-16T14:39:18.698Z,6.33
2023-03-16T14:41:49.655Z,5.33
2023-03-16T14:44:26.922Z,6.10
2023-03-16T14:46:58.872Z,5.60
2023-03-16T14:49:28.465Z,4.83
2023-03-16T14:52:01.565Z,6.43
2023-03-16T14:54:28.815Z,3.80
2023-03-16T14:57:00.224Z,3.07
2023-03-16T14:59:27.705Z,4.23
2023-03-16T15:01:54.763Z,8.73
2023-03-16T15:04:28.068Z,4.07
2023-03-16T15:06:54.767Z,3.90
2023-03-16T15:09:30.788Z,4.13
2023-03-16T15:11:57.459Z,4.40
2023-03-16T15:14:42.486Z,14.80
2023-03-16T15:17:08.823Z,68.03
2023-03-16T15:19:35.778Z,9.53
2023-03-16T15:22:03.057Z,5.43
2023-03-16T15:24:31.666Z,12.77
2023-03-16T15:26:58.746Z,110.13
2023-03-16T15:29:26.404Z,68.97
2023-03-16T15:31:54.490Z,12.20
2023-03-16T15:34:22.026Z,7.63
2023-03-16T15:36:48.883Z,4.33
2023-03-16T15:39:24.295Z,4.27
2023-03-16T15:41:51.274Z,5.33
2023-03-16T15:44:17.922Z,13.63
2023-03-16T15:46:44.550Z,10.50
2023-03-16T15:49:11.465Z,14.43
2023-03-16T15:51:37.700Z,4.90
2023-03-16T15:54:08.852Z,6.03
2023-03-16T15:56:52.690Z,5.37
2023-03-16T15:59:22.587Z,7.40
2023-03-16T16:01:50.093Z,37.30
2023-03-16T16:04:19.812Z,13.87
2023-03-16T16:06:48.630Z,21.87
2023-03-16T16:09:15.667Z,7.17
2023-03-16T16:11:42.742Z,26.77
2023-03-16T16:14:21.897Z,25.87
2023-03-16T16:16:48.514Z,37.53
2023-03-16T16:19:15.943Z,16.30
2023-03-16T16:21:43.130Z,16.70
2023-03-16T16:24:10.700Z,70.70
2023-03-16T16:26:51.624Z,148.90
2023-03-16T16:29:27.009Z,127.87
2023-03-16T16:31:53.668Z,39.13
2023-03-16T16:34:23.736Z,14.23
2023-03-16T16:36:50.514Z,18.07
2023-03-16T16:39:17.399Z,11.87
2023-03-16T16:41:44.100Z,19.80
2023-03-16T16:44:20.666Z,97.97
2023-03-16T16:46:49.567Z,171.53
2023-03-16T16:49:24.086Z,77.00
2023-03-16T16:51:51.996Z,251.60
2023-03-16T16:54:24.277Z,103.63
2023-03-16T16:56:53.864Z,84.57
2023-03-16T16:59:32.536Z,53.90
2023-03-16T17:02:01.144Z,32.53
2023-03-16T17:04:28.800Z,39.60
2023-03-16T17:06:59.045Z,53.87
2023-03-16T17:09:27.547Z,62.03
2023-03-16T17:11:58.024Z,126.80
2023-03-16T17:14:26.896Z,77.23
2023-03-16T17:16:53.722Z,49.73
2023-03-16T17:19:27.363Z,18.27
2023-03-16T17:21:56.679Z,28.13
2023-03-16T17:24:23.736Z,23.63
2023-03-16T17:26:53.419Z,27.03
2023-03-16T17:29:38.614Z,55.17
2023-03-16T17:32:24.378Z,56.63
2023-03-16T17:34:51.611Z,48.97
2023-03-16T17:37:20.405Z,30.87
2023-03-16T17:39:47.217Z,21.70
2023-03-16T17:42:19.449Z,20.37
2023-03-16T17:44:51.613Z,38.07
2023-03-16T17:47:30.709Z,38.20
2023-03-16T17:49:57.666Z,25.57
2023-03-16T17:52:26.276Z,15.87
2023-03-16T17:54:54.149Z,15.53
2023-03-16T17:57:26.666Z,13.83
2023-03-16T17:59:53.511Z,12.67
2023-03-16T18:02:38.296Z,30.67
2023-03-16T18:05:09.044Z,28.97
2023-03-16T18:07:35.745Z,57.87
2023-03-16T18:10:02.772Z,23.87
2023-03-16T18:12:29.577Z,18.30
2023-03-16T18:14:58.041Z,30.90
2023-03-16T18:17:32.003Z,22.73
2023-03-16T18:19:59.838Z,23.53
2023-03-16T18:22:27.477Z,21.27
2023-03-16T18:24:54.971Z,22.93
2023-03-16T18:27:21.677Z,43.23
2023-03-16T18:29:49.200Z,38.37
2023-03-16T18:32:28.722Z,47.33
2023-03-16T18:34:56.844Z,37.00
2023-03-16T18:37:25.557Z,29.67
2023-03-16T18:39:53.799Z,40.30
2023-03-16T18:42:27.018Z,81.20
2023-03-16T18:44:54.352Z,73.23
2023-03-16T18:47:30.705Z,44.20
2023-03-16T18:49:58.672Z,28.90
2023-03-16T18:52:28.508Z,17.07
2023-03-16T18:54:57.097Z,37.03
2023-03-16T18:57:26.659Z,37.60
2023-03-16T18:59:54.071Z,26.13
2023-03-16T19:02:38.326Z,22.77
2023-03-16T19:05:13.005Z,45.13
2023-03-16T19:07:45.733Z,36.23
2023-03-16T19:10:22.374Z,48.43
2023-03-16T19:12:49.236Z,47.53
2023-03-16T19:15:28.486Z,41.80
2023-03-16T19:17:56.249Z,45.73
2023-03-16T19:20:29.545Z,37.10
2023-03-16T19:23:05.260Z,46.53
2023-03-16T19:25:38.163Z,34.73
2023-03-16T19:28:07.247Z,22.00
2023-03-16T19:30:35.321Z,23.97
2023-03-16T19:33:01.969Z,22.53
2023-03-16T19:35:48.761Z,17.77
2023-03-16T19:38:17.959Z,14.77
2023-03-16T19:40:48.102Z,16.40
2023-03-16T19:43:19.885Z,17.83
2023-03-16T19:45:47.855Z,14.00
2023-03-16T19:48:32.320Z,13.53
2023-03-16T19:50:59.858Z,13.30
2023-03-16T19:53:26.837Z,13.10
2023-03-16T19:55:53.908Z,12.47
2023-03-16T19:58:37.853Z,18.57
2023-03-16T20:01:09.929Z,12.73
2023-03-16T20:03:37.964Z,11.03
2023-03-16T20:06:04.822Z,11.03
2023-03-16T20:08:31.164Z,12.47
2023-03-16T20:11:06.666Z,8.10
2023-03-16T20:13:35.562Z,12.63
2023-03-16T20:16:02.808Z,16.87
2023-03-16T20:18:29.379Z,9.60
2023-03-16T20:20:56.922Z,8.13
2023-03-16T20:23:26.762Z,10.37
2023-03-16T20:25:56.415Z,12.97
2023-03-16T20:28:27.164Z,12.30
2023-03-16T20:30:53.791Z,8.73
2023-03-16T20:33:23.819Z,9.57
2023-03-16T20:35:55.568Z,12.50
2023-03-16T20:38:22.882Z,9.00
2023-03-16T20:40:52.463Z,10.33
2023-03-16T20:43:26.890Z,10.90
2023-03-16T20:45:56.754Z,10.97
2023-03-16T20:48:24.838Z,11.83
2023-03-16T20:50:53.831Z,9.70
2023-03-16T20:53:20.885Z,12.03
2023-03-16T20:55:49.567Z,11.50
2023-03-16T20:58:23.817Z,8.53
2023-03-16T21:00:52.576Z,9.33
2023-03-16T21:03:21.976Z,9.17
2023-03-16T21:05:50.440Z,11.53
2023-03-16T21:08:18.432Z,9.57
2023-03-16T21:10:47.650Z,10.60
2023-03-16T21:13:32.118Z,12.73
2023-03-16T21:16:01.894Z,9.00
2023-03-16T21:18:30.163Z,15.07
2023-03-16T21:20:58.261Z,13.53
2023-03-16T21:23:24.937Z,14.20
2023-03-16T21:26:00.802Z,16.07
2023-03-16T21:28:31.968Z,13.57
2023-03-16T21:30:59.282Z,14.43
2023-03-16T21:33:38.387Z,15.37
2023-03-16T21:36:17.670Z,15.97
2023-03-16T21:38:45.350Z,14.67
2023-03-16T21:41:13.268Z,16.23
2023-03-16T21:43:39.855Z,17.03
2023-03-16T21:46:20.293Z,20.70
2023-03-16T21:48:48.988Z,15.90
2023-03-16T21:51:19.478Z,17.70
2023-03-16T21:53:47.221Z,17.43
2023-03-16T21:56:16.255Z,18.40
2023-03-16T21:58:43.599Z,20.13
2023-03-16T22:01:44.881Z,17.83
2023-03-16T22:04:17.353Z,16.70
2023-03-16T22:06:45.231Z,23.07
2023-03-16T22:09:29.189Z,22.90
2023-03-16T22:11:55.574Z,18.27
2023-03-16T22:14:21.741Z,18.53
2023-03-16T22:16:48.521Z,21.70
2023-03-16T22:19:16.958Z,20.43
2023-03-16T22:21:44.357Z,22.73
2023-03-16T22:24:20.216Z,18.27
2023-03-16T22:26:48.284Z,20.93
2023-03-16T22:29:22.721Z,20.37
2023-03-16T22:31:52.983Z,20.80
2023-03-16T22:34:26.689Z,17.13
2023-03-16T22:36:53.517Z,17.60
2023-03-16T22:39:19.818Z,18.37
2023-03-16T22:41:46.289Z,17.33
2023-03-16T22:44:20.212Z,15.30
2023-03-16T22:46:50.098Z,14.33
2023-03-16T22:49:26.462Z,16.63
2023-03-16T22:51:56.581Z,18.07
2023-03-16T22:54:26.610Z,15.80
2023-03-16T22:56:53.792Z,17.03
2023-03-16T22:59:24.191Z,22.20
2023-03-16T23:01:51.143Z,17.30
2023-03-16T23:04:22.795Z,17.67
2023-03-16T23:06:53.226Z,21.23
2023-03-16T23:09:21.081Z,19.07
2023-03-16T23:11:53.422Z,17.33
2023-03-16T23:14:22.894Z,16.17
2023-03-16T23:16:51.916Z,18.43
2023-03-16T23:19:25.759Z,15.57
2023-03-16T23:21:54.110Z,20.73
2023-03-16T23:24:21.161Z,19.10
2023-03-16T23:26:49.049Z,20.47
2023-03-16T23:29:15.517Z,17.80
2023-03-16T23:31:42.465Z,18.73
2023-03-16T23:34:14.542Z,15.50
2023-03-16T23:36:41.412Z,18.50
2023-03-16T23:39:08.355Z,19.83
2023-03-16T23:41:36.732Z,20.97
2023-03-16T23:44:06.043Z,23.03
2023-03-16T23:46:33.699Z,17.00
2023-03-16T23:49:03.749Z,21.47
2023-03-16T23:51:35.534Z,19.47
2023-03-16T23:54:10.311Z,22.07
2023-03-16T23:56:37.003Z,23.67
2023-03-16T23:59:03.220Z,25.03
